createdAt,value
2023-04-07T00:01:30.636Z,99.90
2023-04-07T00:03:57.661Z,99.90
2023-04-07T00:06:24.662Z,99.90
2023-04-07T00:08:51.381Z,99.90
2023-04-07T00:11:19.323Z,99.90
2023-04-07T00:13:46.090Z,99.90
2023-04-07T00:16:12.978Z,99.90
2023-04-07T00:18:39.766Z,99.90
2023-04-07T00:21:06.626Z,99.90
2023-04-07T00:23:33.403Z,99.90
2023-04-07T00:26:01.066Z,99.90
2023-04-07T00:28:27.761Z,99.90
2023-04-07T00:30:54.549Z,99.90
2023-04-07T00:33:21.331Z,99.90
2023-04-07T00:35:48.184Z,99.90
2023-04-07T00:38:14.995Z,99.90
2023-04-07T00:40:41.779Z,99.90
2023-04-07T00:43:08.680Z,99.90
2023-04-07T00:45:36.690Z,99.90
2023-04-07T00:48:04.409Z,99.90
2023-04-07T00:50:31.411Z,99.90
2023-04-07T00:52:58.482Z,99.90
2023-04-07T00:55:25.418Z,99.90
2023-04-07T00:57:52.421Z,99.90
2023-04-07T01:00:19.451Z,99.90
2023-04-07T01:03:03.609Z,99.90
2023-04-07T01:05:31.670Z,99.90
2023-04-07T01:08:14.127Z,99.90
2023-04-07T01:10:44.988Z,99.90
2023-04-07T01:13:24.122Z,99.90
2023-04-07T01:15:57.113Z,99.90
2023-04-07T01:18:31.315Z,99.90
2023-04-07T01:21:04.454Z,99.90
2023-04-07T01:23:55.767Z,99.90
2023-04-07T01:26:28.084Z,99.90
2023-04-07T01:29:11.767Z,99.90
2023-04-07T01:31:42.079Z,99.90
2023-04-07T01:34:11.996Z,99.90
2023-04-07T01:36:39.610Z,99.90
2023-04-07T01:39:07.722Z,99.90
2023-04-07T01:41:37.953Z,99.90
2023-04-07T01:44:06.557Z,99.90
2023-04-07T01:46:33.961Z,99.90
2023-04-07T01:49:01.736Z,99.90
2023-04-07T01:51:31.119Z,99.90
2023-04-07T01:53:59.202Z,99.90
2023-04-07T01:56:26.169Z,99.90
2023-04-07T01:58:53.164Z,99.90
2023-04-07T02:01:20.096Z,99.90
2023-04-07T02:03:56.450Z,99.90
2023-04-07T02:06:28.441Z,99.90
2023-04-07T02:09:00.279Z,99.90
2023-04-07T02:11:29.317Z,99.90
2023-04-07T02:13:57.599Z,99.90
2023-04-07T02:16:26.119Z,99.90
2023-04-07T02:18:53.866Z,99.90
2023-04-07T02:21:22.874Z,99.90
2023-04-07T02:23:49.836Z,99.90
2023-04-07T02:26:16.752Z,99.90
2023-04-07T02:28:43.624Z,99.90
2023-04-07T02:31:11.198Z,99.90
2023-04-07T02:33:37.977Z,99.90
2023-04-07T02:36:04.905Z,99.90
2023-04-07T02:38:32.664Z,99.90
2023-04-07T02:40:59.522Z,99.90
2023-04-07T02:43:26.529Z,99.90
2023-04-07T02:45:53.331Z,99.90
2023-04-07T02:48:20.213Z,99.90
2023-04-07T02:50:47.160Z,99.90
2023-04-07T02:53:14.423Z,99.90
2023-04-07T02:55:41.730Z,99.90
2023-04-07T02:58:08.666Z,99.90
2023-04-07T04:01:15.486Z,99.90
2023-04-07T04:03:42.436Z,99.90
2023-04-07T04:06:09.298Z,99.90
2023-04-07T04:08:36.014Z,99.90
2023-04-07T04:11:02.819Z,99.90
2023-04-07T04:13:29.652Z,99.90
2023-04-07T04:15:56.513Z,99.90
2023-04-07T04:18:23.387Z,99.90
2023-04-07T04:20:50.523Z,99.90
2023-04-07T04:23:17.367Z,99.90
2023-04-07T04:25:44.227Z,99.90
2023-04-07T04:28:10.967Z,99.90
2023-04-07T04:30:37.811Z,99.90
2023-04-07T04:33:04.822Z,99.90
2023-04-07T04:35:31.721Z,99.90
2023-04-07T04:37:58.645Z,99.90
2023-04-07T04:40:25.407Z,99.90
2023-04-07T04:42:52.149Z,99.90
2023-04-07T04:45:19.068Z,99.90
2023-04-07T04:47:45.981Z,99.90
2023-04-07T04:50:13.081Z,99.90
2023-04-07T04:52:40.555Z,99.90
2023-04-07T04:55:08.113Z,99.90
2023-04-07T04:57:36.179Z,99.90
2023-04-07T05:00:04.506Z,99.90
2023-04-07T05:02:31.609Z,99.90
2023-04-07T05:04:58.844Z,99.90
2023-04-07T05:07:26.094Z,99.90
2023-04-07T05:09:52.943Z,99.90
2023-04-07T05:12:19.811Z,99.90
2023-04-07T05:14:46.577Z,99.90
2023-04-07T05:17:13.435Z,99.90
2023-04-07T05:19:40.473Z,99.90
2023-04-07T05:22:07.269Z,99.90
2023-04-07T05:24:34.214Z,99.90
2023-04-07T05:27:01.893Z,99.90
2023-04-07T05:29:28.754Z,99.90
2023-04-07T05:31:55.631Z,99.90
2023-04-07T05:34:22.410Z,99.90
2023-04-07T05:36:49.176Z,99.90
2023-04-07T05:39:15.932Z,99.90
2023-04-07T05:41:42.763Z,99.90
2023-04-07T05:44:09.553Z,99.90
2023-04-07T05:46:36.338Z,99.90
2023-04-07T05:49:18.387Z,99.90
2023-04-07T05:51:47.581Z,99.90
2023-04-07T05:54:16.051Z,99.90
2023-04-07T05:56:42.897Z,99.90
2023-04-07T05:59:10.153Z,99.90
2023-04-07T06:01:36.971Z,99.90
2023-04-07T06:04:04.347Z,99.90
2023-04-07T06:06:31.428Z,99.90
2023-04-07T06:08:58.301Z,99.90
2023-04-07T06:11:26.554Z,99.90
2023-04-07T06:13:53.343Z,99.90
2023-04-07T06:16:20.367Z,99.90
2023-04-07T06:18:47.411Z,99.90
2023-04-07T06:21:14.195Z,99.90
2023-04-07T06:23:41.130Z,99.90
2023-04-07T06:26:12.068Z,99.90
2023-04-07T06:28:39.794Z,99.90
2023-04-07T06:31:08.786Z,99.90
2023-04-07T06:33:36.021Z,99.90
2023-04-07T06:36:02.952Z,99.90
2023-04-07T06:38:29.806Z,99.90
2023-04-07T06:40:56.582Z,99.90
2023-04-07T06:43:23.312Z,99.90
2023-04-07T06:45:50.010Z,99.90
2023-04-07T06:48:16.885Z,99.90
2023-04-07T06:50:47.494Z,99.90
2023-04-07T06:53:14.316Z,99.90
2023-04-07T06:55:41.610Z,99.90
2023-04-07T06:58:08.484Z,99.90
2023-04-07T07:00:36.206Z,99.90
2023-04-07T07:03:03.409Z,99.90
2023-04-07T07:05:30.658Z,99.90
2023-04-07T07:07:57.418Z,99.90
2023-04-07T07:10:24.352Z,99.90
2023-04-07T07:12:51.523Z,99.90
2023-04-07T07:15:18.597Z,99.90
2023-04-07T07:17:45.462Z,99.90
2023-04-07T07:20:12.475Z,99.90
2023-04-07T07:22:39.304Z,99.90
2023-04-07T07:25:06.382Z,99.90
2023-04-07T07:27:33.087Z,99.90
2023-04-07T07:29:59.963Z,99.90
2023-04-07T07:32:27.473Z,99.90
2023-04-07T07:34:54.381Z,99.90
2023-04-07T07:37:21.378Z,99.90
2023-04-07T07:39:48.239Z,99.90
2023-04-07T07:42:15.348Z,99.90
2023-04-07T07:44:42.091Z,99.90
2023-04-07T07:47:08.858Z,99.90
2023-04-07T07:49:35.839Z,99.90
2023-04-07T07:52:02.603Z,99.90
2023-04-07T07:54:29.400Z,99.90
2023-04-07T07:56:56.351Z,99.90
2023-04-07T07:59:23.291Z,99.90
2023-04-07T08:01:50.393Z,99.90
2023-04-07T08:04:17.353Z,99.90
2023-04-07T08:06:44.206Z,99.90
2023-04-07T08:09:12.109Z,99.90
2023-04-07T08:11:39.039Z,99.90
2023-04-07T08:14:08.018Z,99.90
2023-04-07T08:16:36.031Z,99.90
2023-04-07T08:19:02.982Z,99.90
2023-04-07T08:21:29.816Z,99.90
2023-04-07T08:23:56.643Z,99.90
2023-04-07T08:26:23.416Z,99.90
2023-04-07T08:28:51.766Z,99.90
2023-04-07T08:31:19.035Z,99.90
2023-04-07T08:33:46.758Z,99.90
2023-04-07T08:36:14.862Z,99.90
2023-04-07T08:38:41.655Z,99.90
2023-04-07T08:41:13.800Z,99.90
2023-04-07T08:43:43.642Z,99.90
2023-04-07T08:46:11.369Z,99.90
2023-04-07T08:48:39.035Z,99.00
2023-04-07T08:51:08.556Z,98.00
2023-04-07T08:53:43.263Z,96.70
2023-04-07T08:56:12.995Z,96.50
2023-04-07T08:58:40.433Z,96.60
2023-04-07T09:01:09.056Z,96.90
2023-04-07T09:03:36.484Z,96.40
2023-04-07T09:06:03.905Z,97.70
2023-04-07T09:08:30.896Z,98.60
2023-04-07T09:10:58.744Z,98.70
2023-04-07T09:13:25.936Z,99.70
2023-04-07T09:15:52.781Z,97.60
2023-04-07T09:18:19.989Z,96.40
2023-04-07T09:21:03.317Z,96.00
2023-04-07T09:23:39.457Z,96.80
2023-04-07T09:26:22.825Z,96.10
2023-04-07T09:28:59.601Z,95.90
2023-04-07T09:31:52.196Z,97.60
2023-04-07T09:34:29.212Z,97.90
2023-04-07T09:36:57.445Z,99.90
2023-04-07T09:39:24.779Z,99.90
2023-04-07T09:41:52.139Z,99.90
2023-04-07T09:44:20.081Z,99.90
2023-04-07T09:46:53.804Z,99.90
2023-04-07T09:49:21.412Z,99.90
2023-04-07T09:52:07.541Z,99.90
2023-04-07T09:54:37.789Z,99.90
2023-04-07T09:57:06.540Z,99.90
2023-04-07T09:59:35.009Z,99.90
2023-04-07T10:02:02.891Z,99.90
2023-04-07T10:04:30.864Z,99.90
2023-04-07T10:06:59.380Z,99.90
2023-04-07T10:09:28.190Z,99.90
2023-04-07T10:11:57.280Z,99.90
2023-04-07T10:14:31.078Z,99.90
2023-04-07T10:17:03.284Z,99.90
2023-04-07T10:19:33.734Z,99.90
2023-04-07T10:22:03.234Z,99.90
2023-04-07T10:24:47.200Z,99.90
2023-04-07T10:27:19.647Z,99.90
2023-04-07T10:29:50.196Z,99.90
2023-04-07T10:32:17.481Z,99.90
2023-04-07T10:34:53.818Z,99.90
2023-04-07T10:37:22.358Z,99.90
2023-04-07T10:39:51.314Z,99.90
2023-04-07T10:42:43.285Z,99.90
2023-04-07T10:45:10.566Z,99.90
2023-04-07T10:48:00.861Z,99.90
2023-04-07T10:50:29.272Z,99.90
2023-04-07T10:53:12.724Z,99.90
2023-04-07T10:55:41.936Z,99.90
2023-04-07T10:58:25.155Z,99.90
2023-04-07T11:01:07.550Z,99.90
2023-04-07T11:03:37.033Z,99.90
2023-04-07T11:06:08.182Z,99.90
2023-04-07T11:08:36.696Z,99.90
2023-04-07T11:11:09.196Z,99.90
2023-04-07T11:13:44.833Z,99.90
2023-04-07T11:16:11.904Z,99.90
2023-04-07T11:18:39.576Z,99.90
2023-04-07T11:21:08.183Z,99.90
2023-04-07T11:23:42.052Z,99.90
2023-04-07T11:26:11.595Z,99.90
2023-04-07T11:28:47.380Z,99.90
2023-04-07T11:31:23.415Z,99.90
2023-04-07T11:34:00.632Z,99.90
2023-04-07T11:36:30.933Z,99.90
2023-04-07T11:38:58.728Z,99.90
2023-04-07T11:41:27.709Z,99.90
2023-04-07T11:44:10.988Z,99.90
2023-04-07T11:46:56.538Z,99.90
2023-04-07T11:49:24.444Z,99.90
2023-04-07T11:51:59.932Z,99.90
2023-04-07T11:54:26.884Z,99.90
2023-04-07T11:56:55.927Z,99.90
2023-04-07T11:59:24.894Z,99.90
2023-04-07T12:01:56.042Z,99.90
2023-04-07T12:04:24.754Z,99.90
2023-04-07T12:06:52.828Z,99.90
2023-04-07T12:09:28.806Z,99.90
2023-04-07T12:11:57.418Z,99.90
2023-04-07T12:14:25.749Z,99.90
2023-04-07T12:16:56.185Z,99.90
2023-04-07T12:19:24.480Z,99.90
2023-04-07T12:21:51.395Z,99.90
2023-04-07T12:24:18.342Z,99.90
2023-04-07T12:26:45.557Z,99.90
2023-04-07T12:29:12.578Z,99.90
2023-04-07T12:31:39.527Z,99.90
2023-04-07T12:34:06.567Z,99.90
2023-04-07T12:36:33.398Z,99.90
2023-04-07T12:39:00.370Z,99.90
2023-04-07T12:41:27.772Z,99.90
2023-04-07T12:43:54.700Z,99.90
2023-04-07T12:46:22.093Z,99.90
2023-04-07T12:48:49.497Z,99.90
2023-04-07T12:51:16.593Z,99.90
2023-04-07T12:53:43.479Z,99.90
2023-04-07T12:56:10.551Z,99.90
2023-04-07T12:58:37.574Z,99.90
2023-04-07T13:01:04.554Z,99.90
2023-04-07T13:03:31.826Z,99.90
2023-04-07T13:06:01.401Z,99.90
2023-04-07T13:08:29.349Z,99.90
2023-04-07T13:10:56.842Z,99.90
2023-04-07T13:13:24.855Z,99.90
2023-04-07T13:15:52.296Z,99.90
2023-04-07T13:18:19.273Z,99.90
2023-04-07T13:20:55.191Z,99.90
2023-04-07T13:23:42.716Z,99.90
2023-04-07T13:26:09.862Z,99.90
2023-04-07T13:28:36.710Z,99.90
2023-04-07T13:31:03.649Z,99.90
2023-04-07T13:33:30.913Z,99.90
2023-04-07T13:35:57.785Z,99.90
2023-04-07T13:38:24.566Z,99.90
2023-04-07T13:40:51.361Z,99.90
2023-04-07T13:43:19.115Z,99.90
2023-04-07T13:45:46.991Z,99.90
2023-04-07T13:48:13.952Z,99.90
2023-04-07T13:50:41.018Z,99.90
2023-04-07T13:53:08.022Z,99.90
2023-04-07T13:55:34.904Z,99.90
2023-04-07T13:58:01.759Z,99.90
2023-04-07T14:00:28.683Z,99.90
2023-04-07T14:02:56.381Z,99.90
2023-04-07T14:05:24.743Z,99.90
2023-04-07T14:07:51.674Z,99.90
2023-04-07T14:10:18.569Z,99.90
2023-04-07T14:12:45.386Z,99.90
2023-04-07T14:15:12.172Z,99.90
2023-04-07T14:17:39.013Z,99.90
2023-04-07T14:20:06.419Z,99.90
2023-04-07T14:22:33.299Z,99.90
2023-04-07T14:25:00.576Z,99.90
2023-04-07T14:27:31.052Z,99.90
2023-04-07T14:29:59.554Z,99.90
2023-04-07T14:32:29.783Z,99.90
2023-04-07T14:34:59.186Z,99.90
2023-04-07T14:37:28.379Z,99.90
2023-04-07T14:42:26.115Z,99.90
2023-04-07T14:44:53.240Z,99.90
2023-04-07T14:47:20.251Z,99.90
2023-04-07T14:49:47.255Z,99.90
2023-04-07T14:52:14.173Z,99.90
2023-04-07T14:54:43.327Z,99.90
2023-04-07T14:57:11.578Z,99.90
2023-04-07T14:59:38.326Z,99.90
2023-04-07T15:02:05.384Z,99.90
2023-04-07T15:04:32.419Z,99.90
2023-04-07T15:06:59.402Z,99.90
2023-04-07T15:09:26.339Z,99.90
2023-04-07T15:11:53.423Z,99.90
2023-04-07T15:14:20.214Z,99.90
2023-04-07T15:16:50.251Z,99.90
2023-04-07T15:19:17.201Z,99.90
2023-04-07T15:21:44.161Z,99.90
2023-04-07T15:24:11.100Z,99.90
2023-04-07T15:26:37.956Z,99.90
2023-04-07T15:29:04.720Z,99.90
2023-04-07T15:31:31.603Z,99.90
2023-04-07T15:33:58.360Z,99.90
2023-04-07T15:36:26.060Z,99.90
2023-04-07T15:38:52.865Z,99.90
2023-04-07T15:41:19.656Z,99.90
2023-04-07T15:43:46.734Z,99.90
2023-04-07T15:46:13.789Z,99.90
2023-04-07T15:48:40.599Z,99.90
2023-04-07T15:51:07.560Z,99.90
2023-04-07T15:53:34.685Z,99.90
2023-04-07T15:56:01.480Z,99.90
2023-04-07T15:58:28.249Z,99.90
2023-04-07T16:00:55.057Z,99.90
2023-04-07T16:03:22.048Z,99.90
2023-04-07T16:05:51.165Z,99.90
2023-04-07T16:08:18.102Z,99.90
2023-04-07T16:10:44.917Z,99.90
2023-04-07T16:13:11.850Z,99.90
2023-04-07T16:15:41.213Z,99.90
2023-04-07T16:18:12.079Z,99.90
2023-04-07T16:20:39.074Z,99.90
2023-04-07T16:23:05.885Z,99.90
2023-04-07T16:25:32.670Z,99.90
2023-04-07T16:27:59.537Z,99.90
2023-04-07T16:30:26.544Z,99.90
2023-04-07T16:32:53.436Z,99.90
2023-04-07T16:35:20.454Z,99.90
2023-04-07T16:37:47.332Z,99.90
2023-04-07T16:40:14.462Z,99.90
2023-04-07T16:42:41.459Z,99.90
2023-04-07T16:45:08.924Z,99.90
2023-04-07T16:47:35.878Z,99.90
2023-04-07T16:50:04.213Z,99.90
2023-04-07T16:52:31.551Z,99.90
2023-04-07T16:54:59.357Z,99.90
2023-04-07T16:57:26.216Z,99.90
2023-04-07T16:59:53.208Z,99.90
2023-04-07T17:02:20.271Z,99.90
2023-04-07T17:04:47.300Z,99.90
2023-04-07T17:07:14.102Z,99.90
2023-04-07T17:09:41.025Z,99.90
2023-04-07T17:12:07.976Z,99.90
2023-04-07T17:14:35.190Z,99.90
2023-04-07T17:17:02.606Z,99.90
2023-04-07T17:19:29.523Z,99.90
2023-04-07T17:21:56.367Z,99.90
2023-04-07T17:24:23.493Z,99.90
2023-04-07T17:26:50.551Z,99.90
2023-04-07T17:29:17.643Z,99.90
2023-04-07T17:31:44.641Z,99.90
2023-04-07T17:34:11.964Z,99.90
2023-04-07T17:36:38.848Z,99.90
2023-04-07T17:39:05.740Z,99.90
2023-04-07T17:41:34.630Z,99.90
2023-04-07T17:44:01.821Z,99.90
2023-04-07T17:46:28.879Z,99.90
2023-04-07T17:48:58.949Z,99.90
2023-04-07T17:51:26.495Z,99.90
2023-04-07T17:53:53.718Z,99.90
2023-04-07T17:56:21.306Z,99.90
2023-04-07T17:58:48.399Z,99.90
2023-04-07T18:01:17.015Z,99.90
2023-04-07T18:03:44.269Z,99.90
2023-04-07T18:06:16.599Z,99.90
2023-04-07T18:08:46.457Z,99.90
2023-04-07T18:11:13.878Z,99.90
2023-04-07T18:13:40.684Z,99.90
2023-04-07T18:16:09.538Z,99.90
2023-04-07T18:18:38.105Z,99.90
2023-04-07T18:21:06.463Z,99.90
2023-04-07T18:23:33.417Z,99.90
2023-04-07T18:26:04.926Z,99.90
2023-04-07T18:28:31.786Z,99.90
2023-04-07T18:31:01.760Z,99.90
2023-04-07T18:33:32.976Z,99.90
2023-04-07T18:36:02.513Z,99.90
2023-04-07T18:38:29.378Z,99.90
2023-04-07T18:40:56.341Z,99.90
2023-04-07T18:43:23.677Z,99.90
2023-04-07T18:45:52.319Z,99.90
2023-04-07T18:48:19.709Z,99.90
2023-04-07T18:50:52.117Z,99.90
2023-04-07T18:53:20.805Z,99.90
2023-04-07T18:55:48.397Z,99.90
2023-04-07T18:58:15.571Z,99.90
2023-04-07T19:00:42.782Z,99.90
2023-04-07T19:03:10.068Z,99.90
2023-04-07T19:05:41.808Z,99.90
2023-04-07T19:08:09.475Z,99.90
2023-04-07T19:10:36.387Z,99.90
2023-04-07T19:13:04.352Z,99.90
2023-04-07T19:15:34.375Z,99.90
2023-04-07T19:18:02.472Z,99.90
2023-04-07T19:20:30.959Z,99.90
2023-04-07T19:22:58.170Z,99.90
2023-04-07T19:25:25.358Z,99.90
2023-04-07T19:27:52.327Z,99.90
2023-04-07T19:30:19.585Z,99.90
2023-04-07T19:32:46.645Z,99.90
2023-04-07T19:35:13.667Z,99.90
2023-04-07T19:37:40.576Z,99.90
2023-04-07T19:40:08.268Z,99.90
2023-04-07T19:42:36.125Z,99.90
2023-04-07T19:45:05.037Z,99.90
2023-04-07T19:47:31.846Z,99.90
2023-04-07T19:49:58.969Z,99.90
2023-04-07T19:52:25.831Z,99.90
2023-04-07T19:54:52.823Z,99.90
2023-04-07T19:57:20.858Z,99.90
2023-04-07T19:59:48.592Z,99.90
2023-04-07T20:02:15.596Z,99.90
2023-04-07T20:04:42.458Z,99.90
2023-04-07T20:07:09.359Z,99.90
2023-04-07T20:09:37.062Z,99.90
2023-04-07T20:12:04.204Z,99.90
2023-04-07T20:14:31.932Z,99.90
2023-04-07T20:16:58.901Z,99.90
2023-04-07T20:19:25.815Z,99.90
2023-04-07T20:21:52.595Z,99.90
2023-04-07T20:24:19.434Z,99.90
2023-04-07T20:26:46.329Z,99.90
2023-04-07T20:29:13.189Z,99.90
2023-04-07T20:31:41.138Z,99.90
2023-04-07T20:34:07.985Z,99.90
2023-04-07T20:36:34.843Z,99.90
2023-04-07T20:39:01.749Z,99.90
2023-04-07T20:41:28.735Z,99.90
2023-04-07T20:43:55.800Z,99.90
2023-04-07T20:46:22.688Z,99.90
2023-04-07T20:48:49.956Z,99.90
2023-04-07T20:51:17.559Z,99.90
2023-04-07T20:53:44.296Z,99.90
2023-04-07T20:56:11.298Z,99.90
2023-04-07T20:58:38.175Z,99.90
2023-04-07T21:01:05.012Z,99.90
2023-04-07T21:03:32.181Z,99.90
2023-04-07T21:05:59.103Z,99.90
2023-04-07T21:08:25.981Z,99.90
2023-04-07T21:10:53.509Z,99.90
2023-04-07T21:13:22.417Z,99.90
2023-04-07T21:15:49.423Z,99.90
2023-04-07T21:18:16.286Z,99.90
2023-04-07T21:20:43.169Z,99.90
2023-04-07T21:23:11.264Z,99.90
2023-04-07T21:25:40.649Z,99.90
2023-04-07T21:28:07.507Z,99.90
2023-04-07T21:30:34.326Z,99.90
2023-04-07T21:33:01.178Z,99.90
2023-04-07T21:35:29.285Z,99.90
2023-04-07T21:37:56.661Z,99.90
2023-04-07T21:40:23.768Z,99.90
2023-04-07T21:42:52.086Z,99.90
2023-04-07T21:45:19.646Z,99.90
2023-04-07T21:47:47.061Z,99.90
2023-04-07T21:50:14.078Z,99.90
2023-04-07T21:52:42.516Z,99.90
2023-04-07T21:55:10.817Z,99.90
2023-04-07T21:57:37.951Z,99.90
2023-04-07T22:00:07.421Z,99.90
2023-04-07T22:02:35.861Z,99.90
2023-04-07T22:05:02.919Z,99.90
2023-04-07T22:07:30.671Z,99.90
2023-04-07T22:09:58.283Z,99.90
2023-04-07T22:12:25.244Z,99.90
2023-04-07T22:14:52.087Z,99.90
2023-04-07T22:17:18.946Z,99.90
2023-04-07T22:19:46.791Z,99.90
2023-04-07T22:22:13.645Z,99.90
2023-04-07T22:24:40.610Z,99.90
2023-04-07T22:27:07.408Z,99.90
2023-04-07T22:29:34.301Z,99.90
2023-04-07T22:32:01.999Z,99.90
2023-04-07T22:34:28.861Z,99.90
2023-04-07T22:36:57.865Z,99.90
2023-04-07T22:39:25.182Z,99.90
2023-04-07T22:41:52.267Z,99.90
2023-04-07T22:44:19.182Z,99.90
2023-04-07T22:46:46.088Z,99.90
2023-04-07T22:49:13.122Z,99.90
2023-04-07T22:51:41.071Z,99.90
2023-04-07T22:54:07.834Z,99.90
2023-04-07T22:56:35.760Z,99.90
2023-04-07T22:59:05.656Z,99.90
2023-04-07T23:01:33.147Z,99.90
2023-04-07T23:04:00.349Z,99.90
2023-04-07T23:06:29.130Z,99.90
2023-04-07T23:08:56.614Z,99.90
2023-04-07T23:11:23.860Z,99.90
2023-04-07T23:13:51.490Z,99.90
2023-04-07T23:16:18.264Z,99.90
2023-04-07T23:18:46.108Z,99.90
2023-04-07T23:21:13.937Z,99.90
2023-04-07T23:23:40.853Z,99.90
2023-04-07T23:26:08.069Z,99.90
2023-04-07T23:28:34.854Z,99.90
2023-04-07T23:31:02.193Z,99.90
2023-04-07T23:33:31.862Z,99.90
2023-04-07T23:35:59.145Z,99.90
2023-04-07T23:38:26.703Z,99.90
2023-04-07T23:40:53.570Z,99.90
2023-04-07T23:43:20.481Z,99.90
2023-04-07T23:45:47.438Z,99.90
2023-04-07T23:48:15.506Z,99.90
2023-04-07T23:50:42.366Z,99.90
2023-04-07T23:53:09.318Z,99.90
2023-04-07T23:55:36.257Z,99.90
2023-04-07T23:58:03.142Z,99.90
